Time;durP1;ratioP1;P1;durP2;ratioP2;P2;SDS_P1;SDS_P2;PMS_P1;PMS_P2;Temp;Humidity;BMP_temperature;BMP_pressure;BME280_temperature;BME280_humidity;BME280_pressure;Samples;Min_cycle;Max_cycle;Signal;HPM_P1;HPM_P2
2021/08/04 00:00:45;;;;;;;8.80;6.27;;;;;;;16.74;82.17;98686.30;124864;1093;64280;-80
2021/08/04 00:03:24;;;;;;;9.28;6.68;;;;;;;16.78;81.85;98679.67;124856;1093;64367;-80
2021/08/04 00:05:51;;;;;;;7.63;6.13;;;;;;;16.80;82.24;98683.06;124857;1093;64251;-80
2021/08/04 00:08:18;;;;;;;9.65;6.45;;;;;;;16.80;82.12;98683.91;124919;1093;64375;-80
2021/08/04 00:10:46;;;;;;;7.60;6.20;;;;;;;16.84;82.18;98679.06;124832;1093;64299;-80
2021/08/04 00:13:13;;;;;;;10.00;7.37;;;;;;;16.85;82.23;98683.44;124852;1093;64306;-80
2021/08/04 00:15:40;;;;;;;11.30;7.20;;;;;;;16.86;82.45;98677.91;124862;1093;64277;-80
2021/08/04 00:18:07;;;;;;;11.83;8.00;;;;;;;16.82;82.37;98678.36;124786;1092;64277;-80
2021/08/04 00:20:35;;;;;;;10.25;7.25;;;;;;;16.81;82.29;98668.60;124651;1093;64213;-80
2021/08/04 00:23:02;;;;;;;9.33;6.97;;;;;;;16.76;82.30;98668.17;124747;1093;64395;-80
2021/08/04 00:25:30;;;;;;;10.60;6.57;;;;;;;16.71;82.34;98667.77;124798;1093;64328;-80
2021/08/04 00:27:58;;;;;;;10.00;6.07;;;;;;;16.69;82.92;98667.91;124855;1093;64274;-80
2021/08/04 00:30:25;;;;;;;9.13;6.93;;;;;;;16.65;82.80;98670.06;124891;1093;64290;-80
2021/08/04 00:32:54;;;;;;;9.25;7.00;;;;;;;16.63;82.61;98674.73;124883;1093;64279;-80
2021/08/04 00:35:24;;;;;;;8.43;6.60;;;;;;;16.51;83.00;98704.66;124847;1093;64219;-80
2021/08/04 00:37:52;;;;;;;10.43;6.40;;;;;;;16.38;83.40;98686.19;124870;1093;64232;-80
2021/08/04 00:40:19;;;;;;;9.20;6.73;;;;;;;16.38;83.82;98692.41;124735;1093;64293;-80
2021/08/04 00:42:46;;;;;;;8.47;7.07;;;;;;;16.33;84.65;98726.96;124853;1093;64237;-80
2021/08/04 00:45:14;;;;;;;8.27;6.67;;;;;;;16.30;84.27;98710.25;124890;1093;64364;-80
2021/08/04 00:47:42;;;;;;;10.30;6.33;;;;;;;16.27;85.33;98748.20;124855;1093;64420;-80
2021/08/04 00:50:10;;;;;;;9.90;6.70;;;;;;;16.25;85.27;98705.34;124953;1093;64274;-80
2021/08/04 00:52:38;;;;;;;7.63;5.77;;;;;;;16.33;85.22;98702.76;124840;1093;64294;-80
2021/08/04 00:55:06;;;;;;;7.45;5.80;;;;;;;16.35;85.46;98697.22;124887;1093;64291;-80
2021/08/04 00:57:33;;;;;;;8.00;6.30;;;;;;;16.35;85.65;98686.45;124903;1093;64316;-80
2021/08/04 01:00:01;;;;;;;8.47;6.00;;;;;;;16.36;86.15;98680.11;124848;1093;64271;-80
2021/08/04 01:02:37;;;;;;;7.07;6.37;;;;;;;16.36;86.05;98686.33;124876;1092;64284;-81
2021/08/04 01:05:14;;;;;;;8.90;6.33;;;;;;;16.38;86.45;98683.50;124858;1093;64263;-80
2021/08/04 01:07:49;;;;;;;8.47;6.17;;;;;;;16.38;86.48;98699.64;124855;1093;64267;-80
2021/08/04 01:10:32;;;;;;;8.00;6.13;;;;;;;16.39;86.46;98686.02;124858;1093;64367;-81
2021/08/04 01:13:21;;;;;;;7.07;6.37;;;;;;;16.42;86.94;98684.88;124854;1093;64363;-81
2021/08/04 01:15:53;;;;;;;9.73;6.47;;;;;;;16.40;86.88;98681.48;124863;1093;64221;-81
2021/08/04 01:18:26;;;;;;;7.50;6.57;;;;;;;16.42;86.85;98692.95;124733;1093;64271;-81
2021/08/04 01:20:54;;;;;;;8.55;5.75;;;;;;;16.40;87.09;98695.81;124886;1093;64296;-81
2021/08/04 01:23:34;;;;;;;9.60;6.60;;;;;;;16.43;86.95;98698.20;124875;1093;64274;-81
2021/08/04 01:26:10;;;;;;;7.10;6.30;;;;;;;16.40;86.95;98698.50;124830;1093;64264;-81
2021/08/04 01:28:42;;;;;;;13.60;7.00;;;;;;;16.38;87.15;98713.92;124739;1093;64818;-81
2021/08/04 01:31:12;;;;;;;9.20;6.67;;;;;;;16.36;87.18;98723.98;124900;1093;64315;-81
2021/08/04 01:33:49;;;;;;;6.63;5.70;;;;;;;16.33;87.60;98747.64;124866;1093;64369;-81
2021/08/04 01:36:18;;;;;;;9.80;6.33;;;;;;;16.26;87.86;98747.35;124903;1093;64290;-81
2021/08/04 01:38:46;;;;;;;8.65;6.35;;;;;;;16.27;88.05;98738.28;124932;1092;64286;-81
2021/08/04 01:41:17;;;;;;;7.70;6.40;;;;;;;16.28;88.03;98720.33;124858;1093;64444;-81
2021/08/04 01:43:45;;;;;;;8.95;7.05;;;;;;;16.31;88.21;98714.66;124894;1093;64383;-81
2021/08/04 01:46:14;;;;;;;9.97;6.83;;;;;;;16.32;88.23;98717.18;124909;1093;64268;-81
2021/08/04 01:48:43;;;;;;;10.70;7.03;;;;;;;16.38;88.10;98719.30;124883;1093;64284;-81
2021/08/04 01:51:12;;;;;;;9.63;6.70;;;;;;;16.41;88.43;98728.92;124897;1093;64262;-81
2021/08/04 01:53:44;;;;;;;9.37;7.03;;;;;;;16.37;88.51;98732.89;124935;1093;64291;-81
2021/08/04 01:56:14;;;;;;;8.00;6.87;;;;;;;16.33;88.34;98731.50;125002;1093;64287;-81
2021/08/04 01:58:43;;;;;;;7.73;6.83;;;;;;;16.27;88.10;98729.38;124917;1093;64274;-81
2021/08/04 02:01:11;;;;;;;9.00;6.90;;;;;;;16.23;88.24;98724.29;124913;1093;64271;-81
2021/08/04 02:03:39;;;;;;;11.67;7.40;;;;;;;16.24;88.50;98715.25;124839;1093;64248;-81
2021/08/04 02:06:15;;;;;;;9.07;6.97;;;;;;;16.24;88.69;98714.38;124877;1093;64271;-81
2021/08/04 02:08:56;;;;;;;7.40;6.70;;;;;;;16.23;88.52;98700.09;124930;1093;64284;-81
2021/08/04 02:11:53;;;;;;;8.97;6.83;;;;;;;16.24;88.37;98692.86;124860;1093;64274;-81
2021/08/04 02:14:43;;;;;;;10.13;7.10;;;;;;;16.27;88.61;98683.66;124863;1093;64271;-81
2021/08/04 02:17:30;;;;;;;8.63;7.03;;;;;;;16.24;88.08;98676.73;124846;1093;64293;-81
2021/08/04 02:20:00;;;;;;;9.10;7.40;;;;;;;16.29;88.54;98678.98;124865;1093;64331;-81
2021/08/04 02:22:37;;;;;;;7.70;7.03;;;;;;;16.34;88.77;98674.86;124891;1093;64412;-81
2021/08/04 02:25:10;;;;;;;8.60;7.00;;;;;;;16.39;88.78;98679.80;124850;1093;64278;-81
2021/08/04 02:27:39;;;;;;;7.90;7.20;;;;;;;16.40;88.63;98681.48;124855;1093;64284;-81
2021/08/04 02:30:13;;;;;;;8.35;7.35;;;;;;;16.36;88.18;98680.11;124926;1093;64298;-81
2021/08/04 02:32:40;;;;;;;7.90;6.97;;;;;;;16.32;88.25;98666.09;124860;1093;64412;-81
2021/08/04 02:35:08;;;;;;;10.10;8.37;;;;;;;16.30;88.55;98665.41;124718;1093;64283;-81
2021/08/04 02:37:36;;;;;;;9.90;8.40;;;;;;;16.24;88.84;98661.47;124762;1093;64354;-81
2021/08/04 02:40:06;;;;;;;9.17;8.13;;;;;;;16.20;88.66;98661.91;124855;1093;64772;-81
2021/08/04 02:42:34;;;;;;;;;;;;;;;16.15;88.96;98659.64;124897;1093;64210;-81
2021/08/04 02:45:04;;;;;;;9.77;8.33;;;;;;;16.18;89.05;98658.50;124957;1093;64267;-81
2021/08/04 02:47:31;;;;;;;;;;;;;;;16.22;89.02;98652.70;124894;1093;64286;-81
2021/08/04 02:50:01;;;;;;;8.95;8.10;;;;;;;16.28;89.49;98662.02;124845;1093;64271;-81
2021/08/04 02:52:29;;;;;;;8.65;7.85;;;;;;;16.32;89.10;98659.86;124902;1093;64306;-81
2021/08/04 02:54:56;;;;;;;10.10;8.90;;;;;;;16.35;89.05;98649.68;124905;1092;64415;-81
2021/08/04 02:57:24;;;;;;;10.77;8.93;;;;;;;16.40;89.53;98659.97;124906;1093;64421;-81
2021/08/04 02:59:51;;;;;;;9.13;8.23;;;;;;;16.40;89.39;98663.53;124802;1093;64295;-81
2021/08/04 03:02:18;;;;;;;9.93;8.10;;;;;;;16.43;89.25;98654.33;124877;1091;64287;-81
2021/08/04 03:04:45;;;;;;;8.97;7.50;;;;;;;16.46;89.43;98659.40;124728;1093;64376;-81
2021/08/04 03:07:12;;;;;;;7.97;7.20;;;;;;;16.48;89.07;98660.08;124792;1093;64294;-81
2021/08/04 03:09:39;;;;;;;8.77;7.87;;;;;;;16.49;89.25;98663.64;124927;1093;64300;-81
2021/08/04 03:12:07;;;;;;;8.73;7.80;;;;;;;16.48;89.42;98668.14;124942;1093;64271;-81
2021/08/04 03:14:34;;;;;;;9.40;8.03;;;;;;;16.43;89.45;98676.68;124859;1093;64268;-81
2021/08/04 03:17:01;;;;;;;9.30;8.17;;;;;;;16.43;89.61;98676.68;124851;1093;64276;-81
2021/08/04 03:19:28;;;;;;;11.00;8.20;;;;;;;16.44;89.21;98680.21;124899;1093;64440;-81
2021/08/04 03:21:55;;;;;;;9.83;7.90;;;;;;;16.42;89.30;98680.34;124750;1092;64332;-81
2021/08/04 03:24:22;;;;;;;9.20;8.05;;;;;;;16.43;89.72;98689.29;124866;1093;64287;-81
2021/08/04 03:26:49;;;;;;;11.93;8.10;;;;;;;16.39;89.59;98685.19;124851;1093;64268;-81
2021/08/04 03:29:17;;;;;;;8.10;7.27;;;;;;;16.36;89.66;98680.11;124777;1093;64381;-81
2021/08/04 03:31:44;;;;;;;8.97;7.30;;;;;;;16.46;89.87;98687.14;124902;1093;64938;-80
2021/08/04 03:34:11;;;;;;;8.65;7.85;;;;;;;16.51;89.69;98675.95;124950;1093;64428;-81
2021/08/04 03:36:39;;;;;;;8.30;7.50;;;;;;;16.51;89.86;98673.25;124885;1093;64279;-81
2021/08/04 03:39:06;;;;;;;10.60;8.00;;;;;;;16.58;90.18;98676.18;124840;1093;64188;-81
2021/08/04 03:41:33;;;;;;;7.73;7.00;;;;;;;16.66;89.82;98671.74;124906;1093;64290;-81
2021/08/04 03:44:01;;;;;;;8.50;7.37;;;;;;;16.68;89.64;98680.52;124864;1093;64760;-81
2021/08/04 03:46:28;;;;;;;8.50;7.60;;;;;;;16.61;89.62;98683.95;124869;1093;64453;-80
2021/08/04 03:48:55;;;;;;;9.07;8.17;;;;;;;16.55;89.77;98680.02;124848;1093;64213;-80
2021/08/04 03:51:22;;;;;;;8.93;7.50;;;;;;;16.46;90.07;98683.61;124871;1093;64269;-81
2021/08/04 03:53:49;;;;;;;8.77;7.70;;;;;;;16.35;90.45;98678.39;124813;1093;64299;-80
2021/08/04 03:56:16;;;;;;;8.77;7.90;;;;;;;16.28;90.35;98677.30;124871;1093;64290;-81
2021/08/04 03:58:44;;;;;;;14.50;8.87;;;;;;;16.29;90.80;98678.98;124849;1093;64351;-81
2021/08/04 04:01:11;;;;;;;12.90;9.53;;;;;;;16.30;90.54;98678.86;124913;1093;64271;-81
2021/08/04 04:03:38;;;;;;;9.90;8.37;;;;;;;16.34;90.51;98680.23;124957;1093;64331;-81
2021/08/04 04:06:06;;;;;;;8.80;8.00;;;;;;;16.40;90.58;98689.55;124749;1093;64246;-81
2021/08/04 04:08:33;;;;;;;9.33;8.13;;;;;;;16.42;91.05;98696.48;124854;1093;64411;-80
2021/08/04 04:11:00;;;;;;;8.63;7.70;;;;;;;16.43;90.71;98700.05;124917;1092;64762;-80
2021/08/04 04:13:27;;;;;;;8.50;7.57;;;;;;;16.47;90.40;98701.43;124860;1092;64284;-80
2021/08/04 04:15:54;;;;;;;8.03;6.97;;;;;;;16.59;90.52;98694.04;124900;1093;64245;-81
2021/08/04 04:18:21;;;;;;;10.13;7.47;;;;;;;16.67;90.50;98694.98;124891;1093;64284;-80
2021/08/04 04:20:49;;;;;;;9.13;8.23;;;;;;;16.67;90.19;98700.36;124850;1093;64315;-80
2021/08/04 04:23:16;;;;;;;8.63;7.77;;;;;;;16.71;90.24;98700.06;124869;1093;64504;-80
2021/08/04 04:25:43;;;;;;;10.83;8.00;;;;;;;16.70;89.51;98704.59;124894;1093;64312;-80
2021/08/04 04:28:11;;;;;;;8.33;7.53;;;;;;;16.70;89.88;98709.14;124858;1093;64737;-81
2021/08/04 04:30:38;;;;;;;9.20;8.10;;;;;;;16.78;90.18;98711.97;124881;1093;64383;-80
2021/08/04 04:33:05;;;;;;;8.63;7.83;;;;;;;16.85;89.70;98718.42;124823;1093;64232;-80
2021/08/04 04:35:32;;;;;;;8.60;7.70;;;;;;;16.96;89.83;98723.63;124883;1093;65794;-80
2021/08/04 04:37:59;;;;;;;9.47;8.47;;;;;;;17.09;89.33;98720.59;124879;1093;64773;-80
2021/08/04 04:40:27;;;;;;;22.37;20.70;;;;;;;17.31;89.01;98722.00;124866;1093;64271;-80
2021/08/04 04:42:54;;;;;;;15.20;12.50;;;;;;;17.55;88.70;98716.00;124924;1093;64280;-80
2021/08/04 04:45:21;;;;;;;9.53;8.53;;;;;;;17.80;88.46;98709.03;124920;1093;64275;-80
2021/08/04 04:47:48;;;;;;;9.00;8.10;;;;;;;17.98;87.99;98707.16;124838;1093;64437;-81
2021/08/04 04:50:16;;;;;;;10.87;8.73;;;;;;;18.09;87.98;98718.66;124877;1093;64367;-80
2021/08/04 04:52:43;;;;;;;9.53;8.17;;;;;;;18.20;87.38;98716.57;124894;1093;64283;-80
2021/08/04 04:55:11;;;;;;;10.00;8.23;;;;;;;18.31;87.26;98714.63;124879;1093;64367;-80
2021/08/04 04:57:39;;;;;;;9.50;7.77;;;;;;;18.40;87.09;98714.52;124840;1093;64421;-80
2021/08/04 05:00:07;;;;;;;12.93;8.33;;;;;;;18.48;86.76;98716.39;124847;1093;64344;-80
2021/08/04 05:02:39;;;;;;;11.97;9.10;;;;;;;18.52;86.48;98725.03;124918;1093;64283;-81
2021/08/04 05:05:08;;;;;;;9.27;8.43;;;;;;;18.55;86.45;98735.50;124892;1093;64701;-81
2021/08/04 05:07:35;;;;;;;30.35;27.95;;;;;;;18.63;86.24;98738.25;124781;1093;64303;-81
2021/08/04 05:10:03;;;;;;;23.43;21.53;;;;;;;18.67;85.87;98730.66;124831;1094;64277;-81
2021/08/04 05:12:30;;;;;;;18.33;16.77;;;;;;;18.72;85.58;98740.00;124946;1093;64312;-81
2021/08/04 05:14:57;;;;;;;12.50;11.20;;;;;;;18.77;85.83;98734.13;124858;1093;64274;-80
2021/08/04 05:17:24;;;;;;;9.50;8.50;;;;;;;18.84;85.69;98724.38;124963;1093;64188;-81
2021/08/04 05:19:52;;;;;;;9.33;8.47;;;;;;;18.95;85.62;98720.54;124967;1093;64284;-81
2021/08/04 05:22:19;;;;;;;11.60;9.77;;;;;;;19.02;85.09;98713.48;124827;1093;64517;-81
2021/08/04 05:24:46;;;;;;;12.37;10.00;;;;;;;19.09;84.68;98703.73;124921;1093;64408;-80
2021/08/04 05:27:13;;;;;;;11.57;9.60;;;;;;;19.13;84.30;98702.38;124890;1092;64267;-81
2021/08/04 05:29:40;;;;;;;9.73;8.73;;;;;;;19.13;83.93;98705.08;124749;1093;64191;-81
2021/08/04 05:32:08;;;;;;;11.20;9.57;;;;;;;19.17;84.46;98709.15;124852;1093;64271;-80
2021/08/04 05:34:35;;;;;;;9.57;8.43;;;;;;;19.25;84.46;98725.38;124744;1094;64402;-81
2021/08/04 05:37:02;;;;;;;9.47;8.33;;;;;;;19.27;84.28;98726.07;124758;1093;64306;-81
2021/08/04 05:39:29;;;;;;;7.90;6.97;;;;;;;19.34;84.43;98720.00;124690;1093;64260;-80
2021/08/04 05:41:56;;;;;;;9.03;7.60;;;;;;;19.47;83.82;98720.36;124888;1093;64256;-81
2021/08/04 05:44:23;;;;;;;7.30;6.13;;;;;;;19.69;83.30;98713.48;124882;1093;64303;-80
2021/08/04 05:46:51;;;;;;;5.80;5.20;;;;;;;19.80;83.14;98721.28;124871;1093;64270;-80
2021/08/04 05:49:18;;;;;;;5.83;5.17;;;;;;;19.94;82.91;98717.05;124827;1093;64389;-80
2021/08/04 05:51:45;;;;;;;6.57;5.80;;;;;;;20.07;82.52;98727.37;124869;1093;64316;-80
2021/08/04 05:54:12;;;;;;;5.20;4.60;;;;;;;20.14;81.90;98725.65;124845;1093;64274;-79
2021/08/04 05:56:40;;;;;;;6.40;4.60;;;;;;;20.20;81.34;98737.67;124866;1093;64268;-79
2021/08/04 05:59:07;;;;;;;4.77;4.23;;;;;;;20.27;80.78;98730.55;124866;1093;64303;-79
2021/08/04 06:01:34;;;;;;;4.73;4.03;;;;;;;20.33;80.76;98732.59;124812;1092;64543;-79
2021/08/04 06:04:01;;;;;;;6.27;3.73;;;;;;;20.37;80.71;98731.21;124886;1093;64241;-79
2021/08/04 06:06:29;;;;;;;4.00;3.60;;;;;;;20.45;79.92;98738.48;124878;1093;64309;-79
2021/08/04 06:08:56;;;;;;;4.57;4.10;;;;;;;20.48;79.52;98738.97;124823;1093;64290;-79
2021/08/04 06:11:23;;;;;;;4.17;3.77;;;;;;;20.56;79.28;98736.30;124772;1093;64314;-79
2021/08/04 06:13:50;;;;;;;6.07;4.00;;;;;;;20.64;79.03;98729.98;124867;1093;64293;-79
2021/08/04 06:16:18;;;;;;;5.07;4.10;;;;;;;20.72;78.81;98735.41;124793;1092;64188;-79
2021/08/04 06:18:45;;;;;;;3.90;3.60;;;;;;;20.92;78.47;98734.99;124830;1093;64279;-79
2021/08/04 06:21:12;;;;;;;3.60;3.20;;;;;;;21.10;77.83;98727.46;124860;1093;64214;-79
2021/08/04 06:23:40;;;;;;;5.80;4.15;;;;;;;21.29;77.50;98728.05;124858;1093;64271;-79
2021/08/04 06:26:07;;;;;;;4.83;4.10;;;;;;;21.43;77.08;98727.30;124879;1093;64294;-79
2021/08/04 06:28:34;;;;;;;4.93;4.43;;;;;;;21.61;76.04;98721.60;124846;1093;64290;-79
2021/08/04 06:31:01;;;;;;;4.73;3.70;;;;;;;21.75;75.50;98723.55;124867;1092;64364;-79
2021/08/04 06:33:28;;;;;;;5.97;3.90;;;;;;;21.91;74.94;98728.84;124801;1093;64278;-79
2021/08/04 06:35:55;;;;;;;5.23;3.93;;;;;;;22.02;74.66;98724.86;124741;1093;64268;-79
2021/08/04 06:38:22;;;;;;;4.63;3.70;;;;;;;22.20;74.46;98718.30;124870;1093;64213;-79
2021/08/04 06:40:50;;;;;;;3.90;3.60;;;;;;;22.41;73.51;98718.42;124834;1093;64407;-79
2021/08/04 06:43:17;;;;;;;5.25;4.00;;;;;;;22.69;72.86;98720.49;124788;1093;64223;-79
2021/08/04 06:45:45;;;;;;;4.15;3.75;;;;;;;23.10;72.02;98723.59;124765;1093;64244;-79
2021/08/04 06:48:12;;;;;;;6.47;3.90;;;;;;;23.39;71.83;98725.41;124631;1093;64428;-79
2021/08/04 06:50:39;;;;;;;5.27;3.80;;;;;;;23.70;71.44;98717.98;124796;1093;64319;-79
2021/08/04 06:53:06;;;;;;;6.80;4.00;;;;;;;23.78;71.03;98721.47;124683;1093;64308;-79
2021/08/04 06:55:34;;;;;;;4.10;3.70;;;;;;;23.67;70.08;98724.66;124694;1093;64717;-79
2021/08/04 06:58:01;;;;;;;5.13;3.90;;;;;;;23.56;69.72;98727.89;124681;1093;64303;-80
2021/08/04 07:00:28;;;;;;;4.10;3.47;;;;;;;23.32;70.00;98726.36;124728;1093;64319;-78
2021/08/04 07:02:56;;;;;;;5.17;3.90;;;;;;;23.22;69.72;98735.69;124811;1093;64262;-78
2021/08/04 07:05:23;;;;;;;5.70;3.90;;;;;;;23.12;70.37;98731.58;124805;1093;64195;-78
2021/08/04 07:07:50;;;;;;;4.87;3.90;;;;;;;23.25;69.71;98734.46;124815;1093;64271;-78
2021/08/04 07:10:17;;;;;;;3.87;3.40;;;;;;;23.59;69.46;98730.22;124660;1093;64248;-78
2021/08/04 07:12:44;;;;;;;4.10;3.33;;;;;;;23.66;68.39;98739.30;124826;1093;64194;-78
2021/08/04 07:15:11;;;;;;;4.65;4.10;;;;;;;23.58;68.99;98733.98;124866;1093;64415;-78
2021/08/04 07:17:46;;;;;;;3.80;3.40;;;;;;;23.57;69.41;98732.31;125055;1093;64364;-78
2021/08/04 07:20:16;;;;;;;5.67;3.50;;;;;;;23.53;69.42;98733.72;125166;1093;64217;-78
2021/08/04 07:22:44;;;;;;;4.40;3.50;;;;;;;23.49;69.17;98733.27;125214;1092;64268;-78
2021/08/04 07:25:12;;;;;;;4.77;4.07;;;;;;;23.43;69.02;98744.90;124886;1092;64294;-78
2021/08/04 07:27:39;;;;;;;5.03;4.50;;;;;;;23.26;69.18;98738.85;125031;1093;64428;-79
2021/08/04 07:30:10;;;;;;;5.47;4.03;;;;;;;23.27;68.90;98745.13;124846;1093;64271;-78
2021/08/04 07:32:37;;;;;;;4.23;3.83;;;;;;;23.20;68.43;98736.91;124791;1093;64274;-78
2021/08/04 07:35:05;;;;;;;5.03;3.47;;;;;;;23.27;68.55;98734.25;124656;1093;64390;-79
2021/08/04 07:37:34;;;;;;;3.35;2.55;;;;;;;23.30;67.88;98734.73;124753;1093;64373;-78
2021/08/04 07:40:04;;;;;;;2.90;2.70;;;;;;;23.24;67.09;98735.47;124845;1093;64290;-78
2021/08/04 07:42:32;;;;;;;5.23;2.70;;;;;;;23.26;66.50;98729.86;124815;1093;64274;-78
2021/08/04 07:44:59;;;;;;;2.50;2.30;;;;;;;23.33;66.81;98734.34;124812;1093;64303;-79
2021/08/04 07:47:26;;;;;;;2.03;1.87;;;;;;;23.49;66.17;98730.55;124673;1093;64299;-77
2021/08/04 07:49:54;;;;;;;2.07;1.97;;;;;;;23.67;65.37;98721.93;124784;1093;64308;-78
2021/08/04 07:52:21;;;;;;;2.10;2.00;;;;;;;24.03;65.18;98731.95;124807;1093;64438;-78
2021/08/04 07:54:48;;;;;;;2.13;1.80;;;;;;;24.29;63.72;98720.45;124651;1093;64297;-78
2021/08/04 07:57:15;;;;;;;1.83;1.73;;;;;;;24.52;63.02;98718.34;124794;1093;64300;-78
2021/08/04 07:59:43;;;;;;;2.80;1.97;;;;;;;24.74;63.30;98721.83;124670;1093;64261;-78
2021/08/04 08:02:10;;;;;;;2.47;2.23;;;;;;;24.96;62.56;98713.55;124682;1093;64341;-78
2021/08/04 08:04:37;;;;;;;2.83;2.07;;;;;;;25.03;61.04;98719.05;124746;1093;64364;-78
2021/08/04 08:07:05;;;;;;;2.30;1.90;;;;;;;25.01;61.19;98729.31;124788;1093;64316;-78
2021/08/04 08:09:32;;;;;;;2.70;2.27;;;;;;;24.99;60.74;98726.81;124806;1093;64279;-78
2021/08/04 08:12:00;;;;;;;2.47;2.03;;;;;;;24.90;59.61;98725.28;124772;1093;64284;-78
2021/08/04 08:14:29;;;;;;;1.93;1.83;;;;;;;25.01;60.33;98723.86;124779;1093;64316;-78
2021/08/04 08:16:56;;;;;;;2.67;2.00;;;;;;;25.12;60.52;98726.00;124786;1093;64367;-79
2021/08/04 08:19:24;;;;;;;1.47;1.37;;;;;;;25.22;59.51;98720.21;124636;1093;65819;-79
2021/08/04 08:21:52;;;;;;;2.40;1.90;;;;;;;25.28;58.66;98728.44;124807;1093;64297;-79
2021/08/04 08:24:20;;;;;;;1.70;1.60;;;;;;;25.20;58.69;98720.44;124780;1093;64267;-79
2021/08/04 08:26:48;;;;;;;2.10;1.90;;;;;;;25.10;58.68;98730.84;124653;1093;64277;-79
2021/08/04 08:29:15;;;;;;;2.03;1.80;;;;;;;25.13;58.84;98725.81;124902;1093;64325;-79
2021/08/04 08:31:43;;;;;;;1.60;1.50;;;;;;;25.21;58.67;98726.72;125092;1092;64271;-83
2021/08/04 08:34:32;;;;;;;1.70;1.60;;;;;;;25.28;58.49;98724.88;125006;1092;64312;-91
2021/08/04 08:36:59;;;;;;;3.37;1.70;;;;;;;25.43;58.39;98721.97;124914;1093;64281;-89
2021/08/04 08:39:26;;;;;;;1.67;1.10;;;;;;;25.56;56.53;98728.30;124889;1093;64430;-80
2021/08/04 08:42:03;;;;;;;1.93;1.63;;;;;;;25.53;57.12;98730.61;124975;1093;64364;-91
2021/08/04 08:44:30;;;;;;;2.30;1.45;;;;;;;25.58;56.70;98726.21;125005;1093;64604;-87
2021/08/04 08:52:17;;;;;;;1.83;1.33;;;;;;;25.81;55.38;98727.74;122534;1093;64281;-93
2021/08/04 08:54:44;;;;;;;1.50;1.40;;;;;;;25.83;54.76;98728.38;125941;1093;64431;-92
2021/08/04 08:57:32;;;;;;;1.27;1.03;;;;;;;25.81;54.94;98727.74;126284;1093;64275;-93
2021/08/04 09:00:00;;;;;;;1.70;1.37;;;;;;;25.83;54.68;98737.41;126465;1092;64213;-89
2021/08/04 09:02:28;;;;;;;1.40;1.30;;;;;;;25.89;54.55;98724.84;124990;1093;64410;-87
2021/08/04 09:05:00;;;;;;;1.13;1.03;;;;;;;26.01;53.98;98735.98;124799;1093;64337;-81
2021/08/04 09:07:39;;;;;;;1.83;1.73;;;;;;;26.04;54.29;98735.55;124884;1092;64369;-79
2021/08/04 09:10:33;;;;;;;2.37;1.63;;;;;;;26.09;53.89;98734.94;124891;1093;64264;-79
2021/08/04 09:13:05;;;;;;;1.60;1.50;;;;;;;26.10;53.99;98723.81;124766;1093;64191;-80
2021/08/04 09:15:36;;;;;;;1.53;1.43;;;;;;;26.21;53.77;98736.84;124794;1093;64265;-80
2021/08/04 09:18:06;;;;;;;1.40;1.30;;;;;;;26.26;53.79;98728.85;124830;1093;64417;-81
2021/08/04 09:21:00;;;;;;;2.25;1.60;;;;;;;26.37;53.61;98729.27;124802;1093;64817;-80
2021/08/04 09:23:28;;;;;;;1.77;1.40;;;;;;;26.44;53.26;98730.12;124820;1093;64309;-81
2021/08/04 09:26:09;;;;;;;2.77;1.53;;;;;;;26.50;53.17;98731.99;124840;1093;64408;-79
2021/08/04 09:29:15;;;;;;;1.10;1.10;;;;;;;26.61;52.84;98722.34;124877;1091;64268;-79
2021/08/04 09:31:54;;;;;;;1.63;1.37;;;;;;;26.54;52.45;98724.23;124490;1096;64282;-79
2021/08/04 09:34:31;;;;;;;1.95;1.35;;;;;;;26.60;52.28;98723.41;124608;1096;64463;-79
2021/08/04 09:37:07;;;;;;;1.60;1.50;;;;;;;26.55;52.20;98715.83;124707;1093;64307;-80
2021/08/04 09:39:45;;;;;;;2.77;1.60;;;;;;;26.43;52.42;98714.75;124792;1093;64367;-79
2021/08/04 09:42:13;;;;;;;4.63;1.60;;;;;;;26.26;51.39;98714.36;124859;1093;64271;-79
2021/08/04 09:45:00;;;;;;;1.70;1.60;;;;;;;26.09;50.84;98713.92;124830;1093;64412;-79
2021/08/04 09:47:27;;;;;;;2.13;1.97;;;;;;;25.99;53.00;98717.09;124890;1093;64268;-79
2021/08/04 09:50:02;;;;;;;2.20;2.03;;;;;;;26.06;52.94;98712.45;124778;1093;64290;-80
2021/08/04 09:52:32;;;;;;;2.47;1.80;;;;;;;25.98;52.09;98723.58;124691;1093;64239;-79
2021/08/04 09:55:17;;;;;;;3.63;2.50;;;;;;;25.92;52.31;98718.96;124813;1093;64271;-79
2021/08/04 09:57:48;;;;;;;2.13;2.00;;;;;;;25.95;52.22;98726.73;124844;1093;64319;-79
2021/08/04 10:00:16;;;;;;;1.93;1.77;;;;;;;25.89;51.19;98719.38;124760;1093;64355;-79
2021/08/04 10:02:44;;;;;;;3.20;1.80;;;;;;;25.78;52.66;98729.00;124948;1093;64287;-79
2021/08/04 10:05:25;;;;;;;2.30;1.83;;;;;;;26.03;52.60;98717.50;124676;1093;64329;-79
2021/08/04 10:08:05;;;;;;;1.77;1.67;;;;;;;26.04;51.71;98719.16;124803;1093;64287;-79
2021/08/04 10:10:36;;;;;;;1.87;1.50;;;;;;;25.80;52.69;98715.98;124883;1093;64236;-79
2021/08/04 10:13:05;;;;;;;2.17;1.80;;;;;;;25.75;52.32;98712.17;124816;1093;64312;-78
2021/08/04 10:15:43;;;;;;;1.43;1.33;;;;;;;25.68;52.57;98712.17;124861;1093;64340;-79
2021/08/04 10:18:17;;;;;;;1.70;1.60;;;;;;;25.87;53.02;98704.25;124828;1093;64268;-79
2021/08/04 10:20:50;;;;;;;2.10;1.90;;;;;;;25.91;51.58;98700.91;124832;1093;64268;-79
2021/08/04 10:23:19;;;;;;;2.43;1.97;;;;;;;26.02;52.81;98705.73;124821;1093;64473;-79
2021/08/04 10:25:48;;;;;;;4.05;1.75;;;;;;;26.27;53.18;98708.66;124892;1093;64268;-79
2021/08/04 10:28:16;;;;;;;2.45;2.00;;;;;;;26.26;51.61;98717.92;124832;1093;64326;-79
2021/08/04 10:30:44;;;;;;;3.23;2.10;;;;;;;26.05;52.17;98713.51;124784;1093;64290;-79
2021/08/04 10:33:13;;;;;;;1.97;1.70;;;;;;;25.83;51.55;98722.92;124786;1093;64241;-80
2021/08/04 10:35:53;;;;;;;2.03;1.90;;;;;;;25.94;52.02;98711.41;124810;1093;64271;-80
2021/08/04 10:38:24;;;;;;;2.10;1.90;;;;;;;26.02;51.60;98699.44;124793;1093;64255;-80
2021/08/04 10:41:25;;;;;;;3.27;1.67;;;;;;;26.15;51.80;98693.98;124920;1093;64309;-80
2021/08/04 10:43:56;;;;;;;2.10;1.53;;;;;;;26.30;50.43;98695.64;124726;1093;64437;-79
2021/08/04 10:46:29;;;;;;;2.07;1.47;;;;;;;26.12;50.81;98701.73;124770;1093;64370;-79
2021/08/04 10:49:05;;;;;;;2.40;1.80;;;;;;;26.05;50.86;98702.58;124783;1093;64246;-79
2021/08/04 10:51:35;;;;;;;2.50;1.67;;;;;;;25.95;50.71;98704.05;124798;1093;64334;-79
2021/08/04 10:54:02;;;;;;;1.50;1.40;;;;;;;25.95;50.95;98706.78;124866;1093;64287;-79
2021/08/04 10:56:50;;;;;;;2.63;1.80;;;;;;;26.15;51.80;98709.53;124882;1093;64219;-79
2021/08/04 10:59:27;;;;;;;2.70;1.50;;;;;;;26.19;50.47;98694.39;124899;1093;64260;-79
2021/08/04 11:02:15;;;;;;;2.37;1.70;;;;;;;26.04;50.75;98694.59;124775;1093;64319;-79
2021/08/04 11:04:45;;;;;;;3.93;1.60;;;;;;;25.89;51.85;98699.44;124762;1093;64322;-79
2021/08/04 11:07:15;;;;;;;1.93;1.80;;;;;;;25.96;51.75;98697.53;124769;1093;64271;-79
2021/08/04 11:09:54;;;;;;;2.60;1.70;;;;;;;26.15;52.01;98702.17;124785;1093;64316;-79
2021/08/04 11:12:22;;;;;;;1.47;1.37;;;;;;;26.22;50.98;98696.69;124884;1092;64300;-79
2021/08/04 11:14:55;;;;;;;1.35;1.25;;;;;;;26.02;50.32;98694.81;124876;1093;64264;-79
2021/08/04 11:17:29;;;;;;;2.30;1.90;;;;;;;26.18;50.74;98696.28;124826;1093;64340;-79
2021/08/04 11:19:57;;;;;;;2.10;1.70;;;;;;;26.55;51.17;98699.44;124809;1092;64753;-79
2021/08/04 11:22:28;;;;;;;1.77;1.40;;;;;;;26.77;50.41;98700.00;124816;1093;64370;-79
2021/08/04 11:24:58;;;;;;;2.33;1.60;;;;;;;26.97;50.72;98702.69;124867;1093;64276;-79
2021/08/04 11:27:28;;;;;;;2.87;1.80;;;;;;;26.71;49.32;98696.23;124825;1093;64408;-79
2021/08/04 11:29:57;;;;;;;2.10;1.60;;;;;;;26.57;49.36;98693.73;124888;1093;64266;-79
2021/08/04 11:32:27;;;;;;;2.08;1.75;;;;;;;26.45;48.92;98709.92;124787;1093;64191;-79
2021/08/04 11:34:55;;;;;;;1.63;1.53;;;;;;;26.45;49.50;98702.56;124875;1093;64271;-82
2021/08/04 11:37:27;;;;;;;3.17;1.50;;;;;;;26.58;49.94;98689.97;124724;1093;64290;-81
2021/08/04 11:39:57;;;;;;;2.20;1.55;;;;;;;26.75;48.86;98701.27;124851;1093;64377;-79
2021/08/04 11:42:24;;;;;;;;;;;;;;;26.97;48.70;98693.66;124905;1092;64271;-80